メインページ
METAR-TAF:

METAR-TAF

空港 :

イスタンブル-アタテュルク, トルコ

アタテュルク国際空港

緯度: 40-58N, 経度: 028-49E, 海抜: 48m

現時点の気象観測

当レポートは46分前の04:20(UTC)に作成
西の風 3kt
気温 16°C
湿度 94%
気圧 1018 hPa
視程: 0300m
高度300ftの千切れ雲あり
散在霧

METAR: LTBA 210420Z 27003KT 1900 0300N R35R/0500D R17L/0275D R05/P1500D R23/P1500U BCFG BKN003 16/15 Q1018 BECMG 3100

時間: 08:06 (05:06 UTC)

予報

当レポートは2時間57分前の02:09(UTC)に作成
予報は21日の 02時(UTC)から 22日の 06時(UTC)まで有効
変向風 2kt
視程: 2900m
高度300ftの千切れ雲あり
21日の 03時(UTC)から 21日の 06時(UTC)まで徐々に
視程: 6000m
高度2700ftの雲は散在している
21日の 06時(UTC)から 21日の 09時(UTC)まで徐々に
視程10km以上
1,500メートル以下は雲なし、積乱雲なし
21日の 19時(UTC)から 21日の 22時(UTC)まで徐々に
視程: 4000m

TAF: LTBA 210209Z 2102/2206 VRB02KT 2900 BR BKN003 BECMG 2103/2106 6000 SCT027 BECMG 2106/2109 CAVOK BECMG 2119/2122 4000 BR

4,000以上の空港の気象観測と天気予報(METAR報とTAF報)

利用可能な観測所は地図上に黄色い丸と赤い丸で示す。

丸の上にカーソルを重ねると観測所名を参照できる。

次にクリックすると気象観測と天気予報を参照できる。

マップの切り替え:黒色「×」印の緑ボタンをクリックして拡大、「-」印の緑ボタンをクリックして縮小、緑色の三角印をクリックして隣りの地図に切り替え


METAR-TAF: